Deshler, NE

9:14 AM CST on December 22, 2014 (GMT -0600)
Hebron Municipal | Change Station
CLOSE
Current Station
Airport
Location: Hebron,
Elevation: 1467 ft
Nearby Weather Stations

Elev 1467 ft 40.15 °N, 97.59 °W | Updated 19 minutes ago

Overcast
Overcast
41 °F
Feels Like 37 °F
N
6
Wind Variable Wind from WNW

Today
High -- | Low -- °F
--% Chance of Precip.
Yesterday
High -- | Low -- °F
Precip. -- in
7:50 AM 5:09 PM
New Moon, 0% visible
Pressure 29.52 in
Visibility 7.0 miles
Clouds Mostly Cloudy 2600 ft
Mostly Cloudy 7000 ft
Overcast 11000 ft
Windchill 37 °F
Dew Point 37 °F
Humidity 85%
Rainfall 0.07 in
Snow Depth Not available.
UV 0 out of 12
Pollen .10 out of 12
Air Quality Not available.
Flu Activity Not available.
METAR KHJH 221455Z AUTO 30005KT 7SM BKN026 BKN070 OVC110 05/03 A2952 RMK AO2 60001 T00500027

More Conditions Fewer Conditions

Pressure 29.52 in
Visibility 7.0 miles
Clouds Mostly Cloudy 2600 ft
Mostly Cloudy 7000 ft
Overcast 11000 ft
Windchill 37 °F
Dew Point 37 °F
Humidity 85%
Rainfall 0.07 in
Snow Depth Not available.
UV 0 out of 12
Pollen .10 out of 12
Air Quality Not available.
Flu Activity Not available.
METAR KHJH 221455Z AUTO 30005KT 7SM BKN026 BKN070 OVC110 05/03 A2952 RMK AO2 60001 T00500027

More Conditions Fewer Conditions

10-Day Weather Forecast

Almanac

Astronomy

Dec. 22, 2014 Rise Set
Actual Time
Civil Twilight
Nautical Twilight
Astronomical Twilight
Moon
Length of Visible Light
Length of Day
Tomorrow will be .
, % of the Moon is Illuminated

Today's Extremes

State Highs State Lows

Community

WunderPhotos

Upload Photos

1,779,610 photos uploaded!

WunderBlogs® & News

Nearby

Air Quality

  Air Quality AQ Index Pollutant
Not available.

Snow Depth

Station Depth Elevation

Earthquake Activity

City Distance Mag. Time & Date
Minimum magnitude displayed is 2.5.

Coastal Water Temperatures

Place Temperature

Nearby Weather Stations